sensor_id;sensor_type;location;lat;lon;timestamp;P1;durP1;ratioP1;P2;durP2;ratioP2
63342;SDS011;49465;57.664;39.686;2022-11-12T00:01:10;0.20;;;0.20;;
63342;SDS011;49465;57.664;39.686;2022-11-12T00:03:44;0.20;;;0.20;;
63342;SDS011;49465;57.664;39.686;2022-11-12T00:06:13;0.43;;;0.20;;
63342;SDS011;49465;57.664;39.686;2022-11-12T00:08:43;0.43;;;0.30;;
63342;SDS011;49465;57.664;39.686;2022-11-12T00:11:09;0.95;;;0.30;;
63342;SDS011;49465;57.664;39.686;2022-11-12T00:13:36;0.52;;;0.30;;
63342;SDS011;49465;57.664;39.686;2022-11-12T00:16:02;0.45;;;0.30;;
63342;SDS011;49465;57.664;39.686;2022-11-12T00:18:29;0.55;;;0.20;;
63342;SDS011;49465;57.664;39.686;2022-11-12T00:20:56;0.68;;;0.30;;
63342;SDS011;49465;57.664;39.686;2022-11-12T00:23:22;0.20;;;0.20;;
63342;SDS011;49465;57.664;39.686;2022-11-12T00:25:56;0.55;;;0.30;;
63342;SDS011;49465;57.664;39.686;2022-11-12T00:28:25;0.20;;;0.20;;
63342;SDS011;49465;57.664;39.686;2022-11-12T00:30:52;0.20;;;0.20;;
63342;SDS011;49465;57.664;39.686;2022-11-12T00:33:21;0.20;;;0.20;;
63342;SDS011;49465;57.664;39.686;2022-11-12T00:35:47;0.30;;;0.20;;
63342;SDS011;49465;57.664;39.686;2022-11-12T00:38:14;0.45;;;0.20;;
63342;SDS011;49465;57.664;39.686;2022-11-12T00:40:44;0.30;;;0.20;;
63342;SDS011;49465;57.664;39.686;2022-11-12T00:43:10;0.20;;;0.20;;
63342;SDS011;49465;57.664;39.686;2022-11-12T00:45:37;0.65;;;0.20;;
63342;SDS011;49465;57.664;39.686;2022-11-12T00:48:03;0.40;;;0.20;;
63342;SDS011;49465;57.664;39.686;2022-11-12T00:50:29;0.10;;;0.10;;
63342;SDS011;49465;57.664;39.686;2022-11-12T00:52:56;0.32;;;0.20;;
63342;SDS011;49465;57.664;39.686;2022-11-12T00:55:22;0.20;;;0.13;;
63342;SDS011;49465;57.664;39.686;2022-11-12T00:57:48;0.20;;;0.20;;
63342;SDS011;49465;57.664;39.686;2022-11-12T01:00:16;0.10;;;0.10;;
63342;SDS011;49465;57.664;39.686;2022-11-12T01:02:45;0.20;;;0.20;;
63342;SDS011;49465;57.664;39.686;2022-11-12T01:05:21;0.10;;;0.10;;
63342;SDS011;49465;57.664;39.686;2022-11-12T01:07:47;0.10;;;0.10;;
63342;SDS011;49465;57.664;39.686;2022-11-12T01:10:13;0.20;;;0.20;;
63342;SDS011;49465;57.664;39.686;2022-11-12T01:12:40;0.10;;;0.10;;
63342;SDS011;49465;57.664;39.686;2022-11-12T01:15:06;0.10;;;0.10;;
63342;SDS011;49465;57.664;39.686;2022-11-12T01:17:33;0.20;;;0.20;;
63342;SDS011;49465;57.664;39.686;2022-11-12T01:19:59;0.30;;;0.20;;
63342;SDS011;49465;57.664;39.686;2022-11-12T01:22:26;0.20;;;0.20;;
63342;SDS011;49465;57.664;39.686;2022-11-12T01:25:03;0.10;;;0.10;;
63342;SDS011;49465;57.664;39.686;2022-11-12T01:27:29;0.10;;;0.10;;
63342;SDS011;49465;57.664;39.686;2022-11-12T01:30:01;0.10;;;0.10;;
63342;SDS011;49465;57.664;39.686;2022-11-12T01:32:43;0.30;;;0.10;;
63342;SDS011;49465;57.664;39.686;2022-11-12T01:35:10;0.20;;;0.17;;
63342;SDS011;49465;57.664;39.686;2022-11-12T01:37:39;0.38;;;0.22;;
63342;SDS011;49465;57.664;39.686;2022-11-12T01:40:15;0.15;;;0.15;;
63342;SDS011;49465;57.664;39.686;2022-11-12T01:42:49;0.22;;;0.15;;
63342;SDS011;49465;57.664;39.686;2022-11-12T01:45:22;0.15;;;0.13;;
63342;SDS011;49465;57.664;39.686;2022-11-12T01:47:48;0.20;;;0.20;;
63342;SDS011;49465;57.664;39.686;2022-11-12T01:53:23;0.10;;;0.10;;
63342;SDS011;49465;57.664;39.686;2022-11-12T01:55:56;0.20;;;0.20;;
63342;SDS011;49465;57.664;39.686;2022-11-12T02:03:28;0.15;;;0.15;;
63342;SDS011;49465;57.664;39.686;2022-11-12T02:06:14;0.10;;;0.10;;
63342;SDS011;49465;57.664;39.686;2022-11-12T02:08:47;0.20;;;0.20;;
63342;SDS011;49465;57.664;39.686;2022-11-12T02:11:18;0.38;;;0.30;;
63342;SDS011;49465;57.664;39.686;2022-11-12T02:14:05;0.10;;;0.10;;
63342;SDS011;49465;57.664;39.686;2022-11-12T02:16:33;0.30;;;0.20;;
63342;SDS011;49465;57.664;39.686;2022-11-12T02:19:09;0.33;;;0.30;;
63342;SDS011;49465;57.664;39.686;2022-11-12T02:21:40;0.15;;;0.15;;
63342;SDS011;49465;57.664;39.686;2022-11-12T02:26:45;0.63;;;0.20;;
63342;SDS011;49465;57.664;39.686;2022-11-12T02:29:22;0.30;;;0.20;;
63342;SDS011;49465;57.664;39.686;2022-11-12T02:31:57;0.30;;;0.30;;
63342;SDS011;49465;57.664;39.686;2022-11-12T02:34:24;0.65;;;0.20;;
63342;SDS011;49465;57.664;39.686;2022-11-12T02:36:50;0.22;;;0.20;;
63342;SDS011;49465;57.664;39.686;2022-11-12T02:39:19;0.20;;;0.20;;
63342;SDS011;49465;57.664;39.686;2022-11-12T02:41:50;0.30;;;0.20;;
63342;SDS011;49465;57.664;39.686;2022-11-12T02:44:19;0.20;;;0.20;;
63342;SDS011;49465;57.664;39.686;2022-11-12T02:46:45;0.20;;;0.20;;
63342;SDS011;49465;57.664;39.686;2022-11-12T02:49:12;0.20;;;0.20;;
63342;SDS011;49465;57.664;39.686;2022-11-12T02:51:40;0.30;;;0.20;;
63342;SDS011;49465;57.664;39.686;2022-11-12T02:54:07;0.20;;;0.20;;
63342;SDS011;49465;57.664;39.686;2022-11-12T02:56:33;0.65;;;0.20;;
63342;SDS011;49465;57.664;39.686;2022-11-12T02:59:11;0.32;;;0.30;;
63342;SDS011;49465;57.664;39.686;2022-11-12T03:01:43;0.20;;;0.20;;
63342;SDS011;49465;57.664;39.686;2022-11-12T03:04:12;0.22;;;0.20;;
63342;SDS011;49465;57.664;39.686;2022-11-12T03:06:42;0.20;;;0.20;;
63342;SDS011;49465;57.664;39.686;2022-11-12T03:09:13;1.20;;;0.20;;
63342;SDS011;49465;57.664;39.686;2022-11-12T03:11:42;0.28;;;0.20;;
63342;SDS011;49465;57.664;39.686;2022-11-12T03:14:20;0.17;;;0.17;;
63342;SDS011;49465;57.664;39.686;2022-11-12T03:16:48;0.52;;;0.20;;
63342;SDS011;49465;57.664;39.686;2022-11-12T03:19:20;0.40;;;0.20;;
63342;SDS011;49465;57.664;39.686;2022-11-12T03:21:49;1.10;;;0.20;;
63342;SDS011;49465;57.664;39.686;2022-11-12T03:24:19;0.40;;;0.20;;
63342;SDS011;49465;57.664;39.686;2022-11-12T03:26:48;1.02;;;0.90;;
63342;SDS011;49465;57.664;39.686;2022-11-12T03:29:17;0.65;;;0.30;;
63342;SDS011;49465;57.664;39.686;2022-11-12T03:31:55;0.20;;;0.20;;
63342;SDS011;49465;57.664;39.686;2022-11-12T03:34:23;0.20;;;0.20;;
63342;SDS011;49465;57.664;39.686;2022-11-12T03:36:55;0.20;;;0.20;;
63342;SDS011;49465;57.664;39.686;2022-11-12T03:39:22;0.20;;;0.20;;
63342;SDS011;49465;57.664;39.686;2022-11-12T03:41:48;0.25;;;0.20;;
63342;SDS011;49465;57.664;39.686;2022-11-12T03:44:20;0.15;;;0.15;;
63342;SDS011;49465;57.664;39.686;2022-11-12T03:46:49;0.47;;;0.20;;
63342;SDS011;49465;57.664;39.686;2022-11-12T03:49:15;0.65;;;0.28;;
63342;SDS011;49465;57.664;39.686;2022-11-12T03:51:44;0.40;;;0.20;;
63342;SDS011;49465;57.664;39.686;2022-11-12T03:54:13;1.17;;;0.20;;
63342;SDS011;49465;57.664;39.686;2022-11-12T03:56:44;0.13;;;0.13;;
63342;SDS011;49465;57.664;39.686;2022-11-12T03:59:10;0.30;;;0.20;;
63342;SDS011;49465;57.664;39.686;2022-11-12T04:01:36;0.10;;;0.10;;
63342;SDS011;49465;57.664;39.686;2022-11-12T04:04:03;0.40;;;0.20;;
63342;SDS011;49465;57.664;39.686;2022-11-12T04:06:29;0.20;;;0.20;;
63342;SDS011;49465;57.664;39.686;2022-11-12T04:09:14;0.20;;;0.20;;
63342;SDS011;49465;57.664;39.686;2022-11-12T04:11:40;1.13;;;0.20;;
63342;SDS011;49465;57.664;39.686;2022-11-12T04:14:12;0.20;;;0.10;;
63342;SDS011;49465;57.664;39.686;2022-11-12T04:16:38;0.32;;;0.20;;
63342;SDS011;49465;57.664;39.686;2022-11-12T04:19:23;0.20;;;0.20;;
63342;SDS011;49465;57.664;39.686;2022-11-12T04:22:08;0.20;;;0.20;;
63342;SDS011;49465;57.664;39.686;2022-11-12T04:24:39;0.15;;;0.10;;
63342;SDS011;49465;57.664;39.686;2022-11-12T04:27:26;0.30;;;0.20;;
63342;SDS011;49465;57.664;39.686;2022-11-12T04:29:53;0.38;;;0.30;;
63342;SDS011;49465;57.664;39.686;2022-11-12T04:32:39;0.17;;;0.17;;
63342;SDS011;49465;57.664;39.686;2022-11-12T04:35:11;0.13;;;0.13;;
63342;SDS011;49465;57.664;39.686;2022-11-12T04:37:43;0.15;;;0.15;;
63342;SDS011;49465;57.664;39.686;2022-11-12T04:40:20;0.30;;;0.20;;
63342;SDS011;49465;57.664;39.686;2022-11-12T04:43:10;0.38;;;0.30;;
63342;SDS011;49465;57.664;39.686;2022-11-12T04:45:56;0.20;;;0.20;;
63342;SDS011;49465;57.664;39.686;2022-11-12T04:48:37;0.50;;;0.20;;
63342;SDS011;49465;57.664;39.686;2022-11-12T04:51:04;0.30;;;0.30;;
63342;SDS011;49465;57.664;39.686;2022-11-12T04:53:51;0.10;;;0.10;;
63342;SDS011;49465;57.664;39.686;2022-11-12T04:56:18;0.20;;;0.20;;
63342;SDS011;49465;57.664;39.686;2022-11-12T04:58:48;0.38;;;0.20;;
63342;SDS011;49465;57.664;39.686;2022-11-12T05:01:16;0.20;;;0.20;;
63342;SDS011;49465;57.664;39.686;2022-11-12T05:03:45;0.13;;;0.13;;
63342;SDS011;49465;57.664;39.686;2022-11-12T05:06:12;0.25;;;0.20;;
63342;SDS011;49465;57.664;39.686;2022-11-12T05:08:56;0.20;;;0.20;;
63342;SDS011;49465;57.664;39.686;2022-11-12T05:11:25;0.30;;;0.30;;
63342;SDS011;49465;57.664;39.686;2022-11-12T05:13:52;0.20;;;0.20;;
63342;SDS011;49465;57.664;39.686;2022-11-12T05:16:19;0.20;;;0.20;;
63342;SDS011;49465;57.664;39.686;2022-11-12T05:18:46;0.28;;;0.20;;
63342;SDS011;49465;57.664;39.686;2022-11-12T05:21:15;0.30;;;0.10;;
63342;SDS011;49465;57.664;39.686;2022-11-12T05:24:03;1.20;;;0.20;;
63342;SDS011;49465;57.664;39.686;2022-11-12T05:26:32;0.20;;;0.20;;
63342;SDS011;49465;57.664;39.686;2022-11-12T05:29:00;2.80;;;0.20;;
63342;SDS011;49465;57.664;39.686;2022-11-12T05:31:29;0.13;;;0.13;;
63342;SDS011;49465;57.664;39.686;2022-11-12T05:34:01;0.98;;;0.17;;
63342;SDS011;49465;57.664;39.686;2022-11-12T05:36:28;0.50;;;0.20;;
63342;SDS011;49465;57.664;39.686;2022-11-12T05:38:58;0.20;;;0.20;;
63342;SDS011;49465;57.664;39.686;2022-11-12T05:41:24;0.50;;;0.20;;
63342;SDS011;49465;57.664;39.686;2022-11-12T05:43:53;0.73;;;0.20;;
63342;SDS011;49465;57.664;39.686;2022-11-12T05:46:25;0.15;;;0.15;;
63342;SDS011;49465;57.664;39.686;2022-11-12T05:48:54;0.10;;;0.10;;
63342;SDS011;49465;57.664;39.686;2022-11-12T05:51:21;0.80;;;0.20;;
63342;SDS011;49465;57.664;39.686;2022-11-12T05:53:50;0.10;;;0.10;;
63342;SDS011;49465;57.664;39.686;2022-11-12T05:56:19;0.47;;;0.20;;
63342;SDS011;49465;57.664;39.686;2022-11-12T05:58:48;0.20;;;0.20;;
63342;SDS011;49465;57.664;39.686;2022-11-12T06:01:16;0.30;;;0.30;;
63342;SDS011;49465;57.664;39.686;2022-11-12T06:03:43;0.20;;;0.20;;
63342;SDS011;49465;57.664;39.686;2022-11-12T06:06:14;1.10;;;0.28;;
63342;SDS011;49465;57.664;39.686;2022-11-12T06:08:45;0.20;;;0.20;;
63342;SDS011;49465;57.664;39.686;2022-11-12T06:11:12;0.55;;;0.30;;
63342;SDS011;49465;57.664;39.686;2022-11-12T06:13:41;0.75;;;0.20;;
63342;SDS011;49465;57.664;39.686;2022-11-12T06:16:10;0.20;;;0.20;;
63342;SDS011;49465;57.664;39.686;2022-11-12T06:18:42;0.20;;;0.20;;
63342;SDS011;49465;57.664;39.686;2022-11-12T06:21:09;1.27;;;0.20;;
63342;SDS011;49465;57.664;39.686;2022-11-12T06:23:52;0.20;;;0.20;;
63342;SDS011;49465;57.664;39.686;2022-11-12T06:26:26;0.20;;;0.15;;
63342;SDS011;49465;57.664;39.686;2022-11-12T06:28:56;0.95;;;0.20;;
63342;SDS011;49465;57.664;39.686;2022-11-12T06:31:23;0.20;;;0.20;;
63342;SDS011;49465;57.664;39.686;2022-11-12T06:33:49;0.45;;;0.17;;
63342;SDS011;49465;57.664;39.686;2022-11-12T06:36:17;0.30;;;0.25;;
63342;SDS011;49465;57.664;39.686;2022-11-12T06:38:44;0.20;;;0.20;;
63342;SDS011;49465;57.664;39.686;2022-11-12T06:41:11;0.55;;;0.20;;
63342;SDS011;49465;57.664;39.686;2022-11-12T06:43:48;0.30;;;0.20;;
63342;SDS011;49465;57.664;39.686;2022-11-12T06:46:15;0.47;;;0.28;;
63342;SDS011;49465;57.664;39.686;2022-11-12T06:48:47;0.40;;;0.10;;
63342;SDS011;49465;57.664;39.686;2022-11-12T06:51:18;0.38;;;0.20;;
63342;SDS011;49465;57.664;39.686;2022-11-12T06:53:45;0.13;;;0.13;;
63342;SDS011;49465;57.664;39.686;2022-11-12T06:56:15;0.10;;;0.10;;
63342;SDS011;49465;57.664;39.686;2022-11-12T06:58:47;0.20;;;0.20;;
63342;SDS011;49465;57.664;39.686;2022-11-12T07:01:24;0.20;;;0.20;;
63342;SDS011;49465;57.664;39.686;2022-11-12T07:03:54;0.20;;;0.20;;
63342;SDS011;49465;57.664;39.686;2022-11-12T07:06:25;0.40;;;0.20;;
63342;SDS011;49465;57.664;39.686;2022-11-12T07:08:52;0.30;;;0.20;;
63342;SDS011;49465;57.664;39.686;2022-11-12T07:11:19;0.30;;;0.20;;
63342;SDS011;49465;57.664;39.686;2022-11-12T07:13:45;0.80;;;0.40;;
63342;SDS011;49465;57.664;39.686;2022-11-12T07:16:15;0.35;;;0.22;;
63342;SDS011;49465;57.664;39.686;2022-11-12T07:18:43;0.20;;;0.20;;
63342;SDS011;49465;57.664;39.686;2022-11-12T07:21:19;0.20;;;0.20;;
63342;SDS011;49465;57.664;39.686;2022-11-12T07:23:48;0.50;;;0.20;;
63342;SDS011;49465;57.664;39.686;2022-11-12T07:26:19;0.20;;;0.20;;
63342;SDS011;49465;57.664;39.686;2022-11-12T07:28:47;0.40;;;0.20;;
63342;SDS011;49465;57.664;39.686;2022-11-12T07:31:22;0.20;;;0.20;;
63342;SDS011;49465;57.664;39.686;2022-11-12T07:33:54;1.17;;;0.20;;
63342;SDS011;49465;57.664;39.686;2022-11-12T07:36:28;0.68;;;0.20;;
63342;SDS011;49465;57.664;39.686;2022-11-12T07:38:54;0.20;;;0.20;;
63342;SDS011;49465;57.664;39.686;2022-11-12T07:41:21;0.35;;;0.30;;
63342;SDS011;49465;57.664;39.686;2022-11-12T07:43:51;1.20;;;0.25;;
63342;SDS011;49465;57.664;39.686;2022-11-12T07:46:24;0.40;;;0.20;;
63342;SDS011;49465;57.664;39.686;2022-11-12T07:48:51;0.88;;;0.28;;
63342;SDS011;49465;57.664;39.686;2022-11-12T07:51:20;1.98;;;0.22;;
63342;SDS011;49465;57.664;39.686;2022-11-12T07:53:53;0.50;;;0.30;;
63342;SDS011;49465;57.664;39.686;2022-11-12T07:58:55;1.73;;;0.38;;
63342;SDS011;49465;57.664;39.686;2022-11-12T08:01:23;1.17;;;0.60;;
63342;SDS011;49465;57.664;39.686;2022-11-12T08:04:02;1.13;;;0.40;;
63342;SDS011;49465;57.664;39.686;2022-11-12T08:06:31;1.60;;;0.45;;
63342;SDS011;49465;57.664;39.686;2022-11-12T08:09:04;0.93;;;0.60;;
63342;SDS011;49465;57.664;39.686;2022-11-12T08:11:35;1.25;;;0.50;;
63342;SDS011;49465;57.664;39.686;2022-11-12T08:14:06;0.63;;;0.50;;
63342;SDS011;49465;57.664;39.686;2022-11-12T08:16:35;0.90;;;0.60;;
63342;SDS011;49465;57.664;39.686;2022-11-12T08:19:01;0.73;;;0.52;;
63342;SDS011;49465;57.664;39.686;2022-11-12T08:21:28;1.13;;;0.40;;
63342;SDS011;49465;57.664;39.686;2022-11-12T08:23:57;0.45;;;0.30;;
63342;SDS011;49465;57.664;39.686;2022-11-12T08:26:23;1.13;;;0.40;;
63342;SDS011;49465;57.664;39.686;2022-11-12T08:28:50;0.30;;;0.30;;
63342;SDS011;49465;57.664;39.686;2022-11-12T08:31:21;0.50;;;0.30;;
63342;SDS011;49465;57.664;39.686;2022-11-12T08:34:05;1.60;;;0.40;;
63342;SDS011;49465;57.664;39.686;2022-11-12T08:36:49;0.20;;;0.20;;
63342;SDS011;49465;57.664;39.686;2022-11-12T08:39:15;0.20;;;0.20;;
63342;SDS011;49465;57.664;39.686;2022-11-12T08:41:54;0.63;;;0.20;;
63342;SDS011;49465;57.664;39.686;2022-11-12T08:44:23;0.65;;;0.30;;
63342;SDS011;49465;57.664;39.686;2022-11-12T08:46:55;0.22;;;0.20;;
63342;SDS011;49465;57.664;39.686;2022-11-12T08:49:21;0.70;;;0.38;;
63342;SDS011;49465;57.664;39.686;2022-11-12T08:51:53;1.02;;;0.77;;
63342;SDS011;49465;57.664;39.686;2022-11-12T08:54:20;1.88;;;0.80;;
63342;SDS011;49465;57.664;39.686;2022-11-12T08:56:52;0.40;;;0.30;;
63342;SDS011;49465;57.664;39.686;2022-11-12T08:59:21;0.35;;;0.20;;
63342;SDS011;49465;57.664;39.686;2022-11-12T09:01:50;0.20;;;0.20;;
63342;SDS011;49465;57.664;39.686;2022-11-12T09:04:46;0.30;;;0.20;;
63342;SDS011;49465;57.664;39.686;2022-11-12T09:07:12;0.20;;;0.20;;
63342;SDS011;49465;57.664;39.686;2022-11-12T09:09:41;0.52;;;0.10;;
63342;SDS011;49465;57.664;39.686;2022-11-12T09:12:15;0.10;;;0.10;;
63342;SDS011;49465;57.664;39.686;2022-11-12T09:14:44;0.52;;;0.20;;
63342;SDS011;49465;57.664;39.686;2022-11-12T09:17:11;0.17;;;0.17;;
63342;SDS011;49465;57.664;39.686;2022-11-12T09:19:43;0.25;;;0.20;;
63342;SDS011;49465;57.664;39.686;2022-11-12T09:22:09;0.20;;;0.20;;
63342;SDS011;49465;57.664;39.686;2022-11-12T09:24:35;0.45;;;0.10;;
63342;SDS011;49465;57.664;39.686;2022-11-12T09:27:02;0.20;;;0.20;;
63342;SDS011;49465;57.664;39.686;2022-11-12T09:29:30;0.20;;;0.20;;
63342;SDS011;49465;57.664;39.686;2022-11-12T09:31:59;0.10;;;0.10;;
63342;SDS011;49465;57.664;39.686;2022-11-12T09:34:26;0.55;;;0.20;;
63342;SDS011;49465;57.664;39.686;2022-11-12T09:37:04;0.40;;;0.20;;
63342;SDS011;49465;57.664;39.686;2022-11-12T09:39:33;0.10;;;0.10;;
63342;SDS011;49465;57.664;39.686;2022-11-12T09:42:05;0.80;;;0.20;;
63342;SDS011;49465;57.664;39.686;2022-11-12T09:44:37;0.20;;;0.20;;
63342;SDS011;49465;57.664;39.686;2022-11-12T09:50:00;0.13;;;0.13;;
63342;SDS011;49465;57.664;39.686;2022-11-12T09:52:37;0.63;;;0.20;;
63342;SDS011;49465;57.664;39.686;2022-11-12T09:55:29;0.40;;;0.30;;
63342;SDS011;49465;57.664;39.686;2022-11-12T09:58:14;1.02;;;0.30;;
63342;SDS011;49465;57.664;39.686;2022-11-12T10:00:54;0.95;;;0.32;;
63342;SDS011;49465;57.664;39.686;2022-11-12T10:03:36;0.40;;;0.30;;
63342;SDS011;49465;57.664;39.686;2022-11-12T10:14:24;0.30;;;0.10;;
63342;SDS011;49465;57.664;39.686;2022-11-12T10:17:49;0.70;;;0.70;;
63342;SDS011;49465;57.664;39.686;2022-11-12T10:20:16;0.80;;;0.80;;
63342;SDS011;49465;57.664;39.686;2022-11-12T10:23:01;2.40;;;1.25;;
63342;SDS011;49465;57.664;39.686;2022-11-12T10:25:31;1.73;;;1.50;;
63342;SDS011;49465;57.664;39.686;2022-11-12T10:28:06;3.30;;;2.40;;
63342;SDS011;49465;57.664;39.686;2022-11-12T10:30:48;1.33;;;0.68;;
63342;SDS011;49465;57.664;39.686;2022-11-12T10:33:15;0.50;;;0.40;;
63342;SDS011;49465;57.664;39.686;2022-11-12T10:35:44;0.60;;;0.40;;
63342;SDS011;49465;57.664;39.686;2022-11-12T10:38:11;0.80;;;0.30;;
63342;SDS011;49465;57.664;39.686;2022-11-12T10:40:45;0.38;;;0.38;;
63342;SDS011;49465;57.664;39.686;2022-11-12T10:45:44;6.40;;;4.60;;
63342;SDS011;49465;57.664;39.686;2022-11-12T10:48:21;5.18;;;4.07;;
63342;SDS011;49465;57.664;39.686;2022-11-12T10:50:59;2.00;;;1.80;;
63342;SDS011;49465;57.664;39.686;2022-11-12T10:53:37;4.25;;;3.85;;
63342;SDS011;49465;57.664;39.686;2022-11-12T10:56:25;1.30;;;1.20;;
63342;SDS011;49465;57.664;39.686;2022-11-12T10:59:08;3.20;;;2.90;;
63342;SDS011;49465;57.664;39.686;2022-11-12T11:01:55;4.15;;;3.75;;
63342;SDS011;49465;57.664;39.686;2022-11-12T11:04:28;3.03;;;2.72;;
63342;SDS011;49465;57.664;39.686;2022-11-12T11:07:15;1.80;;;1.10;;
63342;SDS011;49465;57.664;39.686;2022-11-12T11:10:04;0.70;;;0.70;;
63342;SDS011;49465;57.664;39.686;2022-11-12T11:15:20;0.70;;;0.70;;
63342;SDS011;49465;57.664;39.686;2022-11-12T11:17:50;1.23;;;0.90;;
63342;SDS011;49465;57.664;39.686;2022-11-12T11:20:35;0.55;;;0.50;;
63342;SDS011;49465;57.664;39.686;2022-11-12T11:25:43;1.58;;;1.20;;
63342;SDS011;49465;57.664;39.686;2022-11-12T11:28:15;0.90;;;0.80;;
63342;SDS011;49465;57.664;39.686;2022-11-12T11:33:53;1.35;;;1.25;;
63342;SDS011;49465;57.664;39.686;2022-11-12T11:36:47;2.30;;;1.40;;
63342;SDS011;49465;57.664;39.686;2022-11-12T11:42:22;1.13;;;0.90;;
63342;SDS011;49465;57.664;39.686;2022-11-12T11:45:10;1.30;;;1.20;;
63342;SDS011;49465;57.664;39.686;2022-11-12T11:50:54;0.60;;;0.60;;
63342;SDS011;49465;57.664;39.686;2022-11-12T11:56:37;0.80;;;0.77;;
63342;SDS011;49465;57.664;39.686;2022-11-12T12:13:24;0.52;;;0.40;;
63342;SDS011;49465;57.664;39.686;2022-11-12T12:19:19;0.40;;;0.38;;
63342;SDS011;49465;57.664;39.686;2022-11-12T12:21:50;0.50;;;0.50;;
63342;SDS011;49465;57.664;39.686;2022-11-12T12:24:24;0.50;;;0.50;;
63342;SDS011;49465;57.664;39.686;2022-11-12T12:27:03;5.38;;;3.90;;
63342;SDS011;49465;57.664;39.686;2022-11-12T12:29:39;4.97;;;3.60;;
63342;SDS011;49465;57.664;39.686;2022-11-12T12:32:26;5.10;;;4.60;;
63342;SDS011;49465;57.664;39.686;2022-11-12T12:35:25;4.05;;;3.45;;
63342;SDS011;49465;57.664;39.686;2022-11-12T12:40:46;1.77;;;1.65;;
63342;SDS011;49465;57.664;39.686;2022-11-12T12:43:38;1.75;;;1.55;;
63342;SDS011;49465;57.664;39.686;2022-11-12T12:46:26;1.67;;;1.38;;
63342;SDS011;49465;57.664;39.686;2022-11-12T12:48:57;5.93;;;4.43;;
63342;SDS011;49465;57.664;39.686;2022-11-12T12:51:28;9.45;;;6.95;;
63342;SDS011;49465;57.664;39.686;2022-11-12T12:59:15;2.05;;;1.40;;
63342;SDS011;49465;57.664;39.686;2022-11-12T13:01:54;1.15;;;1.02;;
63342;SDS011;49465;57.664;39.686;2022-11-12T13:04:58;1.60;;;1.50;;
63342;SDS011;49465;57.664;39.686;2022-11-12T13:07:46;0.60;;;0.50;;
63342;SDS011;49465;57.664;39.686;2022-11-12T13:15:47;0.30;;;0.30;;
63342;SDS011;49465;57.664;39.686;2022-11-12T13:35:12;0.57;;;0.20;;
63342;SDS011;49465;57.664;39.686;2022-11-12T13:51:19;0.10;;;0.10;;
63342;SDS011;49465;57.664;39.686;2022-11-12T13:53:54;0.10;;;0.10;;
63342;SDS011;49465;57.664;39.686;2022-11-12T13:56:27;0.10;;;0.10;;
63342;SDS011;49465;57.664;39.686;2022-11-12T13:59:14;0.10;;;0.10;;
63342;SDS011;49465;57.664;39.686;2022-11-12T14:01:48;0.10;;;0.10;;
63342;SDS011;49465;57.664;39.686;2022-11-12T14:04:15;0.10;;;0.10;;
63342;SDS011;49465;57.664;39.686;2022-11-12T14:06:50;0.10;;;0.10;;
63342;SDS011;49465;57.664;39.686;2022-11-12T14:20:36;0.10;;;0.10;;
63342;SDS011;49465;57.664;39.686;2022-11-12T14:23:20;0.13;;;0.10;;
63342;SDS011;49465;57.664;39.686;2022-11-12T14:25:51;0.45;;;0.10;;
63342;SDS011;49465;57.664;39.686;2022-11-12T14:28:29;0.10;;;0.10;;
63342;SDS011;49465;57.664;39.686;2022-11-12T14:31:12;0.85;;;0.25;;
63342;SDS011;49465;57.664;39.686;2022-11-12T14:33:45;0.20;;;0.20;;
63342;SDS011;49465;57.664;39.686;2022-11-12T14:36:17;0.47;;;0.30;;
63342;SDS011;49465;57.664;39.686;2022-11-12T14:38:47;0.20;;;0.20;;
63342;SDS011;49465;57.664;39.686;2022-11-12T14:41:34;0.25;;;0.25;;
63342;SDS011;49465;57.664;39.686;2022-11-12T14:44:09;0.20;;;0.20;;
63342;SDS011;49465;57.664;39.686;2022-11-12T14:46:56;0.35;;;0.20;;
63342;SDS011;49465;57.664;39.686;2022-11-12T14:49:46;0.10;;;0.10;;
63342;SDS011;49465;57.664;39.686;2022-11-12T14:52:18;0.30;;;0.20;;
63342;SDS011;49465;57.664;39.686;2022-11-12T14:55:05;0.17;;;0.17;;
63342;SDS011;49465;57.664;39.686;2022-11-12T14:57:40;0.70;;;0.20;;
63342;SDS011;49465;57.664;39.686;2022-11-12T15:00:20;0.10;;;0.10;;
63342;SDS011;49465;57.664;39.686;2022-11-12T15:03:07;0.20;;;0.20;;
63342;SDS011;49465;57.664;39.686;2022-11-12T15:08:39;0.30;;;0.20;;
63342;SDS011;49465;57.664;39.686;2022-11-12T15:12:07;0.10;;;0.10;;
63342;SDS011;49465;57.664;39.686;2022-11-12T15:14:19;0.20;;;0.20;;
63342;SDS011;49465;57.664;39.686;2022-11-12T15:16:49;0.30;;;0.20;;
63342;SDS011;49465;57.664;39.686;2022-11-12T15:19:18;0.20;;;0.20;;
63342;SDS011;49465;57.664;39.686;2022-11-12T15:21:53;0.20;;;0.20;;
63342;SDS011;49465;57.664;39.686;2022-11-12T15:24:32;0.10;;;0.10;;
63342;SDS011;49465;57.664;39.686;2022-11-12T15:32:47;0.20;;;0.10;;
63342;SDS011;49465;57.664;39.686;2022-11-12T15:35:34;0.20;;;0.20;;
63342;SDS011;49465;57.664;39.686;2022-11-12T15:41:00;0.20;;;0.20;;
63342;SDS011;49465;57.664;39.686;2022-11-12T15:43:31;1.15;;;0.20;;
63342;SDS011;49465;57.664;39.686;2022-11-12T15:46:15;1.67;;;0.20;;
63342;SDS011;49465;57.664;39.686;2022-11-12T15:48:50;0.30;;;0.20;;
63342;SDS011;49465;57.664;39.686;2022-11-12T15:51:16;0.20;;;0.17;;
63342;SDS011;49465;57.664;39.686;2022-11-12T15:53:46;0.60;;;0.20;;
63342;SDS011;49465;57.664;39.686;2022-11-12T15:56:18;0.45;;;0.20;;
63342;SDS011;49465;57.664;39.686;2022-11-12T15:58:49;0.75;;;0.30;;
63342;SDS011;49465;57.664;39.686;2022-11-12T16:01:18;0.20;;;0.20;;
63342;SDS011;49465;57.664;39.686;2022-11-12T16:03:45;0.30;;;0.30;;
63342;SDS011;49465;57.664;39.686;2022-11-12T16:06:19;0.32;;;0.22;;
63342;SDS011;49465;57.664;39.686;2022-11-12T16:08:51;0.38;;;0.30;;
63342;SDS011;49465;57.664;39.686;2022-11-12T18:42:09;0.63;;;0.22;;
63342;SDS011;49465;57.664;39.686;2022-11-12T18:44:44;0.82;;;0.40;;
63342;SDS011;49465;57.664;39.686;2022-11-12T18:47:23;1.65;;;0.20;;
63342;SDS011;49465;57.664;39.686;2022-11-12T18:52:37;1.65;;;0.20;;
63342;SDS011;49465;57.664;39.686;2022-11-12T18:55:15;0.55;;;0.20;;
63342;SDS011;49465;57.664;39.686;2022-11-12T18:57:45;1.95;;;0.20;;
63342;SDS011;49465;57.664;39.686;2022-11-12T19:00:17;0.30;;;0.20;;
63342;SDS011;49465;57.664;39.686;2022-11-12T19:02:52;1.33;;;0.30;;
63342;SDS011;49465;57.664;39.686;2022-11-12T19:05:21;0.77;;;0.20;;
63342;SDS011;49465;57.664;39.686;2022-11-12T19:07:51;0.55;;;0.30;;
63342;SDS011;49465;57.664;39.686;2022-11-12T19:10:28;1.67;;;0.40;;
63342;SDS011;49465;57.664;39.686;2022-11-12T19:13:03;1.40;;;0.30;;
63342;SDS011;49465;57.664;39.686;2022-11-12T19:15:35;1.40;;;0.40;;
63342;SDS011;49465;57.664;39.686;2022-11-12T19:18:04;1.05;;;0.30;;
63342;SDS011;49465;57.664;39.686;2022-11-12T19:20:39;0.38;;;0.30;;
63342;SDS011;49465;57.664;39.686;2022-11-12T19:23:15;0.85;;;0.28;;
63342;SDS011;49465;57.664;39.686;2022-11-12T19:25:48;0.68;;;0.30;;
63342;SDS011;49465;57.664;39.686;2022-11-12T19:28:17;1.65;;;0.30;;
63342;SDS011;49465;57.664;39.686;2022-11-12T19:30:46;0.47;;;0.20;;
63342;SDS011;49465;57.664;39.686;2022-11-12T19:33:13;0.63;;;0.32;;
63342;SDS011;49465;57.664;39.686;2022-11-12T19:35:45;1.13;;;0.30;;
63342;SDS011;49465;57.664;39.686;2022-11-12T19:38:16;0.73;;;0.30;;
63342;SDS011;49465;57.664;39.686;2022-11-12T19:40:46;0.30;;;0.20;;
63342;SDS011;49465;57.664;39.686;2022-11-12T19:43:17;1.42;;;0.30;;
63342;SDS011;49465;57.664;39.686;2022-11-12T19:45:45;1.27;;;0.50;;
63342;SDS011;49465;57.664;39.686;2022-11-12T19:48:14;0.70;;;0.25;;